Terminal Aerodrome Forecast
Issued by NWS

Home | Current Version | Previous Version | Text Only | Print | Product List | Glossary On
Versions: 1 2 3 4 5 6 7 8 9 10 11 12 13 14 15 16 17 18 19 20
000
FTUS43 KIND 211100
TAFLAF
TAF
KLAF 211120Z 2112/2212 29011KT P6SM SCT025
     FM211300 31013KT P6SM SCT025
     FM211600 32012KT P6SM BKN035
     FM220000 34009KT P6SM SCT030
     FM220300 34004KT P6SM SKC
      AMD LTD TO CLD VIS AND WIND TIL 211300=

USA.gov is the U.S. government's official web portal to all federal, state and local government web resources and services.